Charlottesville Albemarle Airport Charlottesville US
ICAO: KCHO
IATA: CHO
Category: Medium
Scheduled Services: Yes

Elevation: 639 ft
TransAlt. 18000 ft.

Airport Communications:
POTOMAC APP/DEP:132.85
ASOS:118.425
ATIS:118.425
CTAF:124.5
GND:121.9
LEESBURG RDO:122.2
TWR:124.5
UNICOM:122.95

KCHO Zoom In..

If you have problems with the map follow the link
https://www.worldairports.se/pages/airport.php?
ICAO=KCHO

Runways:

(A) RW 03 length 6801 ft width 150 ft
ILS 111.70 / hdg 30

(B) RW 21 length 6801 ft width 150 ft
---- / hdg 210

Location; KCHO
Day. 18 / Time. 01.53 Zulu
* Altimeter: 29.93
* Temperature: 02° c. 35.6°f.
* Wind from: 200° Speed 05 kn.
Dewpoint: 01° c.
Visibility: 5 Statute Miles.
Clouds: Broken 500 ft.
Clouds: Broken 2400 ft.
Clouds: Overcast 4700 ft.
Conditions: Light Rain.Conditions: Mist.

KCHO 180153Z 20005KT 5SM -RA BR BKN005 BKN024 OVC047 02/01 A2993 RMK AO2 SLP137 P0015 T00220006 $


Wind From 200°
Speed 05 kn.

 
 
jpsmedia.com for Web Design worldairports.se 2019   terms of use